Time;durP1;ratioP1;P1;durP2;ratioP2;P2;SDS_P1;SDS_P2;PMS_P1;PMS_P2;Temp;Humidity;BMP_temperature;BMP_pressure;BME280_temperature;BME280_humidity;BME280_pressure;Samples;Min_cycle;Max_cycle;Signal;HPM_P1;HPM_P2
2023/12/08 00:00:26;;;;;;;15.83;12.43;;;;;;;0.65;100.00;100529.25;5050450;28;20433;-60
2023/12/08 00:02:52;;;;;;;16.23;13.23;;;;;;;0.63;100.00;100525.69;5036700;28;20084;-61
2023/12/08 00:05:17;;;;;;;17.70;13.40;;;;;;;0.63;100.00;100525.69;5050415;28;20044;-61
2023/12/08 00:07:43;;;;;;;16.63;13.20;;;;;;;0.65;100.00;100524.16;5033827;28;20025;-61
2023/12/08 00:10:09;;;;;;;18.23;14.27;;;;;;;0.64;100.00;100522.41;5038777;28;20067;-61
2023/12/08 00:12:34;;;;;;;18.30;14.00;;;;;;;0.64;100.00;100524.94;5059996;28;20078;-61
2023/12/08 00:14:59;;;;;;;17.77;13.00;;;;;;;0.65;100.00;100523.28;5039911;28;20028;-60
2023/12/08 00:17:27;;;;;;;18.73;13.83;;;;;;;0.64;100.00;100516.41;5045759;28;20036;-60
2023/12/08 00:19:53;;;;;;;16.93;13.03;;;;;;;0.65;100.00;100507.97;5040704;28;20025;-61
2023/12/08 00:22:18;;;;;;;18.63;14.13;;;;;;;0.64;100.00;100517.28;5048652;28;20037;-60
2023/12/08 00:24:43;;;;;;;16.17;13.20;;;;;;;0.66;100.00;100507.19;5049418;28;20056;-61
2023/12/08 00:27:09;;;;;;;19.87;12.77;;;;;;;0.66;100.00;100515.72;5049221;28;20040;-60
2023/12/08 00:29:34;;;;;;;18.23;13.70;;;;;;;0.65;100.00;100513.94;5049307;28;20060;-61
2023/12/08 00:31:59;;;;;;;16.97;12.80;;;;;;;0.67;100.00;100516.59;5049258;28;20029;-60
2023/12/08 00:34:25;;;;;;;18.13;14.00;;;;;;;0.65;100.00;100503.75;5049203;28;20024;-61
2023/12/08 00:36:50;;;;;;;19.07;13.67;;;;;;;0.70;100.00;100504.94;5048678;28;20021;-61
2023/12/08 00:39:15;;;;;;;17.53;13.63;;;;;;;0.68;100.00;100501.41;5048511;28;20021;-61
2023/12/08 00:41:41;;;;;;;17.93;13.57;;;;;;;0.67;100.00;100499.63;5046968;28;20029;-60
2023/12/08 00:44:08;;;;;;;16.10;12.93;;;;;;;0.68;100.00;100488.66;5048613;28;20044;-61
2023/12/08 00:46:34;;;;;;;17.43;13.90;;;;;;;0.70;100.00;100493.88;5049756;28;20501;-60
2023/12/08 00:49:00;;;;;;;17.10;13.33;;;;;;;0.68;100.00;100492.88;5049242;28;20059;-61
2023/12/08 00:51:25;;;;;;;20.17;13.97;;;;;;;0.68;100.00;100496.31;5050702;28;20111;-61
2023/12/08 00:53:50;;;;;;;18.00;14.07;;;;;;;0.69;100.00;100495.53;5049350;28;20117;-60
2023/12/08 00:56:16;;;;;;;15.40;13.00;;;;;;;0.71;100.00;100496.50;5045747;28;20485;-60
2023/12/08 00:58:41;;;;;;;16.73;12.70;;;;;;;0.71;100.00;100486.31;5046399;28;20028;-61
2023/12/08 01:01:06;;;;;;;19.30;13.50;;;;;;;0.74;100.00;100492.41;5040741;28;20037;-60
2023/12/08 01:03:31;;;;;;;17.63;12.87;;;;;;;0.73;100.00;100477.84;5048792;28;20392;-61
2023/12/08 01:05:57;;;;;;;19.50;13.33;;;;;;;0.75;100.00;100481.41;5059221;28;20028;-60
2023/12/08 01:08:22;;;;;;;17.10;12.90;;;;;;;0.75;100.00;100477.19;5029871;28;20022;-61
2023/12/08 01:10:48;;;;;;;18.27;13.13;;;;;;;0.76;100.00;100471.28;5044551;28;20056;-61
2023/12/08 01:13:13;;;;;;;19.07;13.13;;;;;;;0.77;100.00;100477.28;5047330;28;20382;-60
2023/12/08 01:15:38;;;;;;;18.67;13.23;;;;;;;0.77;100.00;100475.63;5048610;28;20033;-61
2023/12/08 01:18:04;;;;;;;16.63;11.87;;;;;;;0.78;100.00;100469.72;5033319;28;20025;-61
2023/12/08 01:20:29;;;;;;;17.37;12.93;;;;;;;0.78;100.00;100466.28;5041088;28;20075;-59
2023/12/08 01:22:54;;;;;;;15.77;12.67;;;;;;;0.78;100.00;100463.75;5049527;28;20020;-60
2023/12/08 01:25:19;;;;;;;15.97;12.33;;;;;;;0.79;100.00;100462.97;5047167;28;20025;-61
2023/12/08 01:27:45;;;;;;;17.47;13.37;;;;;;;0.75;100.00;100456.78;5048648;28;20384;-60
2023/12/08 01:30:10;;;;;;;16.27;12.70;;;;;;;0.77;100.00;100464.53;5042304;28;20025;-61
2023/12/08 01:32:35;;;;;;;15.67;12.67;;;;;;;0.75;100.00;100454.22;5046427;28;20033;-61
2023/12/08 01:35:01;;;;;;;16.40;13.63;;;;;;;0.75;100.00;100453.34;5045935;28;20028;-60
2023/12/08 01:37:26;;;;;;;15.23;13.17;;;;;;;0.73;100.00;100450.69;5042937;28;20025;-61
2023/12/08 01:39:52;;;;;;;17.20;12.93;;;;;;;0.77;100.00;100446.69;5045812;28;20035;-60
2023/12/08 01:42:17;;;;;;;19.93;13.43;;;;;;;0.76;100.00;100442.34;5048617;28;20487;-61
2023/12/08 01:44:43;;;;;;;17.80;13.00;;;;;;;0.77;100.00;100446.69;5060377;28;20019;-61
2023/12/08 01:47:09;;;;;;;16.43;13.80;;;;;;;0.74;100.00;100443.94;5044327;28;20083;-60
2023/12/08 01:49:36;;;;;;;15.77;13.73;;;;;;;0.76;100.00;100439.78;5038695;28;20043;-61
2023/12/08 01:52:02;;;;;;;17.33;14.07;;;;;;;0.75;100.00;100427.81;5043725;28;20021;-61
2023/12/08 01:54:28;;;;;;;17.30;13.20;;;;;;;0.73;100.00;100434.50;5051672;28;20066;-60
2023/12/08 01:56:54;;;;;;;16.50;14.17;;;;;;;0.66;100.00;100429.00;5047526;28;20452;-60
2023/12/08 01:59:20;;;;;;;20.07;14.30;;;;;;;0.67;100.00;100433.31;5037562;28;20032;-61
2023/12/08 02:01:46;;;;;;;17.63;13.80;;;;;;;0.70;100.00;100425.00;5029189;28;20500;-60
2023/12/08 02:04:11;;;;;;;18.10;13.13;;;;;;;0.67;100.00;100423.09;5039487;28;20052;-60
2023/12/08 02:06:36;;;;;;;18.97;14.97;;;;;;;0.68;100.00;100427.44;5043107;28;20465;-60
2023/12/08 02:09:02;;;;;;;15.97;13.10;;;;;;;0.69;100.00;100426.66;5049856;28;20036;-62
2023/12/08 02:11:27;;;;;;;17.83;14.07;;;;;;;0.66;100.00;100416.25;5030903;28;20080;-61
2023/12/08 02:13:53;;;;;;;19.07;14.10;;;;;;;0.66;100.00;100423.91;5028383;28;20042;-61
2023/12/08 02:16:40;;;;;;;19.10;14.40;;;;;;;0.65;100.00;100414.47;5039857;28;20025;-61
2023/12/08 02:19:08;;;;;;;18.83;14.23;;;;;;;0.63;100.00;100405.81;5053308;28;20021;-60
2023/12/08 02:21:34;;;;;;;18.53;14.57;;;;;;;0.62;100.00;100400.63;5040888;28;20025;-61
2023/12/08 02:23:59;;;;;;;19.20;14.90;;;;;;;0.65;100.00;100386.41;5046474;28;20028;-61
2023/12/08 02:26:24;;;;;;;22.30;15.37;;;;;;;0.65;100.00;100390.66;5045746;28;20025;-60
2023/12/08 02:28:50;;;;;;;20.23;15.57;;;;;;;0.65;100.00;100378.75;5047359;28;20341;-60
2023/12/08 02:31:22;;;;;;;19.30;15.20;;;;;;;0.60;100.00;100372.47;5048455;28;20012;-60
2023/12/08 02:33:50;;;;;;;18.83;14.83;;;;;;;0.58;100.00;100371.50;5059323;28;20772;-61
2023/12/08 02:36:17;;;;;;;19.40;15.87;;;;;;;0.57;100.00;100391.03;5056406;28;20130;-61
2023/12/08 02:38:44;;;;;;;19.47;15.67;;;;;;;0.63;100.00;100390.53;5034589;28;20017;-61
2023/12/08 02:41:09;;;;;;;22.63;16.80;;;;;;;0.63;100.00;100398.16;5037906;28;20063;-60
2023/12/08 02:43:34;;;;;;;23.23;16.87;;;;;;;0.62;100.00;100390.44;5056193;28;20013;-60
2023/12/08 02:46:00;;;;;;;21.70;16.63;;;;;;;0.63;100.00;100380.31;5029068;28;20312;-61
2023/12/08 02:48:25;;;;;;;21.43;16.30;;;;;;;0.63;100.00;100379.47;5056227;28;20036;-61
2023/12/08 02:50:51;;;;;;;21.83;16.27;;;;;;;0.62;100.00;100378.56;5048509;28;20017;-61
2023/12/08 02:53:16;;;;;;;22.10;17.07;;;;;;;0.61;100.00;100379.38;5043242;28;20029;-61
2023/12/08 02:55:42;;;;;;;22.07;16.63;;;;;;;0.63;100.00;100369.25;5047179;28;20017;-61
2023/12/08 02:58:07;;;;;;;24.07;16.93;;;;;;;0.64;100.00;100374.44;5046508;28;20033;-61
2023/12/08 03:00:32;;;;;;;20.83;16.40;;;;;;;0.62;100.00;100380.22;5045796;28;20021;-61
2023/12/08 03:02:57;;;;;;;24.07;18.00;;;;;;;0.61;100.00;100384.47;5046291;28;20548;-61
2023/12/08 03:05:23;;;;;;;23.87;17.10;;;;;;;0.61;100.00;100379.38;5046131;28;20028;-60
2023/12/08 03:07:48;;;;;;;22.20;16.83;;;;;;;0.62;100.00;100390.44;5046083;28;20054;-60
2023/12/08 03:10:14;;;;;;;25.83;18.70;;;;;;;0.63;100.00;100395.63;5037433;28;20060;-61
2023/12/08 03:12:39;;;;;;;22.93;17.00;;;;;;;0.63;100.00;100399.88;5043350;28;20059;-61
2023/12/08 03:15:05;;;;;;;23.60;17.07;;;;;;;0.63;100.00;100399.88;5046682;28;20346;-60
2023/12/08 03:17:31;;;;;;;24.80;17.53;;;;;;;0.62;100.00;100390.44;5046263;28;20164;-60
2023/12/08 03:19:57;;;;;;;22.63;16.97;;;;;;;0.61;100.00;100389.56;5047958;28;20403;-60
2023/12/08 03:22:22;;;;;;;22.47;15.87;;;;;;;0.64;100.00;100387.22;5048858;28;20017;-60
2023/12/08 03:24:47;;;;;;;23.57;17.83;;;;;;;0.65;100.00;100378.75;5039500;28;20508;-61
2023/12/08 03:27:13;;;;;;;24.57;17.33;;;;;;;0.63;100.00;100375.22;5049604;28;20108;-62
2023/12/08 03:29:40;;;;;;;22.30;17.23;;;;;;;0.62;100.00;100377.69;5049097;28;20049;-60
2023/12/08 03:32:06;;;;;;;23.53;18.03;;;;;;;0.63;100.00;100382.88;5047712;28;20522;-60
2023/12/08 03:34:31;;;;;;;24.97;17.83;;;;;;;0.62;100.00;100381.13;5052476;28;20021;-60
2023/12/08 03:36:56;;;;;;;23.00;18.17;;;;;;;0.61;100.00;100387.00;5049031;28;20035;-61
2023/12/08 03:39:21;;;;;;;21.33;16.87;;;;;;;0.62;100.00;100391.31;5049308;28;20021;-60
2023/12/08 03:41:47;;;;;;;25.80;18.73;;;;;;;0.62;100.00;100381.13;5050454;28;20332;-61
2023/12/08 03:44:14;;;;;;;23.97;18.50;;;;;;;0.63;100.00;100379.47;5051811;28;20690;-60
2023/12/08 03:46:42;;;;;;;28.07;19.93;;;;;;;0.65;100.00;100372.78;5046522;28;20049;-60
2023/12/08 03:49:07;;;;;;;26.03;18.40;;;;;;;0.63;100.00;100372.66;5049110;28;20534;-61
2023/12/08 03:51:32;;;;;;;24.50;18.40;;;;;;;0.66;100.00;100367.78;5046421;28;20108;-61
2023/12/08 03:53:58;;;;;;;23.77;17.97;;;;;;;0.64;100.00;100364.25;5050265;28;20041;-60
2023/12/08 03:56:23;;;;;;;25.17;20.00;;;;;;;0.63;100.00;100362.47;5044957;28;20473;-61
2023/12/08 03:58:48;;;;;;;23.83;18.07;;;;;;;0.63;100.00;100367.56;5050071;28;20037;-62
2023/12/08 04:01:20;;;;;;;25.13;18.97;;;;;;;0.62;100.00;100360.72;5049575;28;20024;-61
2023/12/08 04:03:46;;;;;;;24.73;18.07;;;;;;;0.65;100.00;100357.50;5051181;28;20024;-60
2023/12/08 04:06:12;;;;;;;25.47;17.70;;;;;;;0.65;100.00;100344.75;5050070;28;20070;-61
2023/12/08 04:08:37;;;;;;;23.17;18.47;;;;;;;0.59;100.00;100345.22;5048055;28;20060;-60
2023/12/08 04:11:03;;;;;;;27.87;19.80;;;;;;;0.57;100.00;100342.56;5050007;28;20033;-62
2023/12/08 04:13:28;;;;;;;25.43;19.73;;;;;;;0.59;100.00;100347.78;5049795;28;20033;-61
2023/12/08 04:15:54;;;;;;;26.70;19.07;;;;;;;0.59;100.00;100340.13;5049637;28;20028;-61
2023/12/08 04:18:19;;;;;;;26.17;19.33;;;;;;;0.60;100.00;100352.06;5048746;28;20029;-61
2023/12/08 04:20:44;;;;;;;27.67;20.53;;;;;;;0.62;100.00;100347.06;5044460;28;20130;-60
2023/12/08 04:23:10;;;;;;;30.20;20.33;;;;;;;0.58;100.00;100334.13;5049269;28;20032;-61
2023/12/08 04:25:35;;;;;;;26.93;20.27;;;;;;;0.58;100.00;100334.13;5035789;28;20033;-61
2023/12/08 04:28:01;;;;;;;25.37;18.50;;;;;;;0.59;100.00;100330.78;5037763;28;20037;-60
2023/12/08 04:30:26;;;;;;;24.87;17.93;;;;;;;0.62;100.00;100341.97;5048224;28;20044;-61
2023/12/08 04:32:51;;;;;;;28.77;20.87;;;;;;;0.63;100.00;100342.06;5038520;28;20029;-61
2023/12/08 04:35:17;;;;;;;29.13;20.10;;;;;;;0.64;100.00;100338.75;5048858;28;20021;-61
2023/12/08 04:37:42;;;;;;;30.30;19.83;;;;;;;0.68;100.00;100340.72;5048947;28;20108;-61
2023/12/08 04:40:08;;;;;;;26.50;18.97;;;;;;;0.65;100.00;100344.75;5049463;28;20031;-61
2023/12/08 04:42:36;;;;;;;24.37;18.40;;;;;;;0.67;100.00;100343.13;5046603;28;20032;-60
2023/12/08 04:45:01;;;;;;;24.90;18.60;;;;;;;0.72;100.00;100341.75;5049940;28;20424;-62
2023/12/08 04:47:26;;;;;;;28.03;19.70;;;;;;;0.70;100.00;100328.91;5042748;28;20057;-61
2023/12/08 04:49:52;;;;;;;24.57;18.77;;;;;;;0.70;100.00;100334.00;5042472;28;20048;-60
2023/12/08 04:52:17;;;;;;;26.47;19.87;;;;;;;0.69;100.00;100337.38;5048887;28;20025;-60
2023/12/08 04:54:43;;;;;;;28.20;18.30;;;;;;;0.68;100.00;100338.16;5047989;28;20033;-60
2023/12/08 04:57:08;;;;;;;25.93;17.80;;;;;;;0.71;100.00;100340.91;5047785;28;20032;-61
2023/12/08 04:59:33;;;;;;;26.10;18.23;;;;;;;0.75;100.00;100341.09;5047954;28;20040;-60
2023/12/08 05:01:58;;;;;;;24.43;18.67;;;;;;;0.75;100.00;100341.97;5048337;28;20035;-60
2023/12/08 05:04:24;;;;;;;24.73;18.33;;;;;;;0.78;100.00;100333.63;5048851;28;20336;-61
2023/12/08 05:06:49;;;;;;;25.60;18.57;;;;;;;0.81;100.00;100331.28;5049997;28;20041;-61
2023/12/08 05:09:14;;;;;;;24.50;18.17;;;;;;;0.81;100.00;100328.75;5046775;28;20037;-61
2023/12/08 05:11:40;;;;;;;25.70;18.10;;;;;;;0.80;100.00;100330.41;5048985;28;20033;-61
2023/12/08 05:14:05;;;;;;;24.87;18.43;;;;;;;0.79;100.00;100337.97;5047345;28;20024;-61
2023/12/08 05:16:30;;;;;;;26.00;18.83;;;;;;;0.77;100.00;100319.13;5048789;28;20055;-61
2023/12/08 05:18:56;;;;;;;23.33;17.73;;;;;;;0.77;100.00;100326.78;5048354;28;20032;-61
2023/12/08 05:21:21;;;;;;;27.20;18.77;;;;;;;0.77;100.00;100319.13;5047577;28;20061;-60
2023/12/08 05:23:46;;;;;;;27.70;19.43;;;;;;;0.76;100.00;100313.13;5048476;28;20036;-62
2023/12/08 05:26:12;;;;;;;26.40;18.80;;;;;;;0.80;100.00;100315.09;5041620;28;20052;-61
2023/12/08 05:28:37;;;;;;;25.37;18.27;;;;;;;0.85;100.00;100312.81;5042780;28;20069;-62
2023/12/08 05:31:04;;;;;;;25.07;18.33;;;;;;;0.87;100.00;100316.34;5029149;28;20026;-60
2023/12/08 05:33:29;;;;;;;25.70;17.70;;;;;;;0.87;100.00;100324.00;5029426;28;20470;-61
2023/12/08 05:35:55;;;;;;;23.73;17.80;;;;;;;0.87;100.00;100339.31;5030365;28;20033;-60
2023/12/08 05:38:20;;;;;;;23.30;17.17;;;;;;;0.91;100.00;100342.94;5042678;28;20036;-61
2023/12/08 05:40:46;;;;;;;25.77;17.97;;;;;;;0.90;100.00;100339.50;5041708;28;20378;-61
2023/12/08 05:43:11;;;;;;;26.57;18.37;;;;;;;0.92;100.00;100344.69;5030863;28;20033;-61
2023/12/08 05:45:36;;;;;;;24.73;17.97;;;;;;;0.91;100.00;100348.94;5042211;28;20381;-61
2023/12/08 05:48:02;;;;;;;25.17;18.80;;;;;;;0.90;100.00;100347.16;5053574;28;20068;-60
2023/12/08 05:50:27;;;;;;;26.83;19.33;;;;;;;0.91;100.00;100354.06;5047268;28;20116;-61
2023/12/08 05:52:52;;;;;;;25.90;17.97;;;;;;;0.98;100.00;100349.31;5036575;28;20036;-61
2023/12/08 05:55:18;;;;;;;27.03;18.40;;;;;;;1.01;100.00;100357.19;5040004;28;20063;-60
2023/12/08 05:57:43;;;;;;;24.23;18.00;;;;;;;1.07;100.00;100347.34;5049840;28;20101;-61
2023/12/08 06:00:12;;;;;;;24.93;18.33;;;;;;;1.07;100.00;100343.13;5048618;28;20037;-61
2023/12/08 06:02:38;;;;;;;24.40;17.80;;;;;;;1.08;100.00;100337.22;5046315;28;20036;-61
2023/12/08 06:05:03;;;;;;;22.90;17.07;;;;;;;1.12;100.00;100345.97;5047444;28;20376;-62
2023/12/08 06:07:28;;;;;;;27.43;20.33;;;;;;;1.12;100.00;100334.84;5043767;28;20029;-61
2023/12/08 06:09:54;;;;;;;26.90;18.43;;;;;;;1.13;100.00;100345.19;5043731;28;20699;-62
2023/12/08 06:12:19;;;;;;;21.17;16.67;;;;;;;1.15;100.00;100328.28;5045937;28;20040;-61
2023/12/08 06:14:44;;;;;;;26.37;17.67;;;;;;;1.15;100.00;100346.16;5044759;28;20021;-61
2023/12/08 06:17:09;;;;;;;27.57;18.10;;;;;;;1.21;100.00;100343.09;5046240;28;20532;-60
2023/12/08 06:19:35;;;;;;;27.77;18.23;;;;;;;1.24;100.00;100332.22;5041862;28;20028;-62
2023/12/08 06:22:00;;;;;;;25.90;17.93;;;;;;;1.23;100.00;100338.09;5052201;28;20111;-61
2023/12/08 06:24:25;;;;;;;27.40;19.17;;;;;;;1.24;100.00;100347.53;5046713;28;20461;-62
2023/12/08 06:26:50;;;;;;;25.10;18.50;;;;;;;1.23;100.00;100353.41;5037905;28;20079;-61
2023/12/08 06:29:17;;;;;;;27.00;18.83;;;;;;;1.24;100.00;100357.75;5054507;28;20360;-61
2023/12/08 06:31:46;;;;;;;24.10;17.87;;;;;;;1.26;100.00;100351.06;5039444;28;20033;-62
2023/12/08 06:34:11;;;;;;;25.70;17.30;;;;;;;1.27;100.00;100356.25;5045800;28;20099;-61
2023/12/08 06:36:46;;;;;;;28.40;19.60;;;;;;;1.29;100.00;100361.47;5039663;28;20077;-61
2023/12/08 06:39:17;;;;;;;28.20;17.77;;;;;;;1.29;100.00;100362.34;5035522;28;20036;-61
2023/12/08 06:41:43;;;;;;;27.15;18.50;;;;;;;1.34;100.00;100369.38;5044292;28;20081;-61
2023/12/08 06:44:09;;;;;;;25.33;17.70;;;;;;;1.36;100.00;100358.50;5041332;28;20473;-60
2023/12/08 06:46:34;;;;;;;27.33;19.93;;;;;;;1.38;100.00;100364.59;5043624;28;20102;-61
2023/12/08 06:49:00;;;;;;;25.53;18.60;;;;;;;1.46;100.00;100374.41;5050321;28;20397;-61
2023/12/08 06:51:25;;;;;;;27.43;19.17;;;;;;;1.43;100.00;100370.84;5043446;28;20053;-61
2023/12/08 06:53:50;;;;;;;26.57;19.33;;;;;;;1.44;100.00;100372.59;5041145;28;20539;-60
2023/12/08 06:56:15;;;;;;;25.83;18.60;;;;;;;1.48;100.00;100373.69;5043152;28;20459;-61
2023/12/08 06:58:41;;;;;;;29.77;20.50;;;;;;;1.49;100.00;100378.03;5043463;28;20033;-61
2023/12/08 07:01:06;;;;;;;25.33;18.03;;;;;;;1.53;100.00;100373.97;5047761;28;20563;-61
2023/12/08 07:03:31;;;;;;;33.23;20.37;;;;;;;1.51;100.00;100378.97;5042732;28;20481;-61
2023/12/08 07:05:57;;;;;;;33.27;19.87;;;;;;;1.52;100.00;100379.88;5044592;28;20114;-60
2023/12/08 07:08:22;;;;;;;27.53;19.27;;;;;;;1.52;100.00;100372.19;5045934;28;20020;-61
2023/12/08 07:10:47;;;;;;;30.70;20.20;;;;;;;1.55;100.00;100374.94;5056844;28;20033;-62
2023/12/08 07:13:13;;;;;;;30.27;20.50;;;;;;;1.55;100.00;100378.38;5046633;28;20551;-60
2023/12/08 07:15:38;;;;;;;27.93;19.67;;;;;;;1.59;100.00;100371.78;5041029;28;20563;-60
2023/12/08 07:18:04;;;;;;;31.37;21.43;;;;;;;1.61;100.00;100369.31;5041152;28;20548;-60
2023/12/08 07:20:29;;;;;;;28.57;20.10;;;;;;;1.64;100.00;100370.41;5036844;28;20025;-60
2023/12/08 07:22:55;;;;;;;29.80;20.53;;;;;;;1.63;100.00;100373.75;5043349;28;20044;-61
2023/12/08 07:25:21;;;;;;;33.90;20.90;;;;;;;1.64;100.00;100382.28;5042276;28;20025;-60
2023/12/08 07:27:46;;;;;;;26.53;19.50;;;;;;;1.67;100.00;100380.78;5048020;28;20065;-61
2023/12/08 07:30:11;;;;;;;34.33;21.90;;;;;;;1.67;100.00;100388.44;5043169;28;20029;-63
2023/12/08 07:32:37;;;;;;;30.27;20.00;;;;;;;1.68;100.00;100392.78;5050044;28;20017;-61
2023/12/08 07:35:02;;;;;;;28.77;20.37;;;;;;;1.70;100.00;100389.44;5043143;28;20410;-61
2023/12/08 07:37:27;;;;;;;28.97;19.87;;;;;;;1.68;100.00;100394.44;5044437;28;20025;-60
2023/12/08 07:39:53;;;;;;;30.97;21.60;;;;;;;1.71;100.00;100401.44;5042358;28;20021;-60
2023/12/08 07:42:18;;;;;;;34.20;21.37;;;;;;;1.72;100.00;100400.63;5035447;28;20416;-61
2023/12/08 07:44:47;;;;;;;32.83;21.10;;;;;;;1.75;100.00;100399.16;5040832;28;20029;-61
2023/12/08 07:47:12;;;;;;;30.43;20.07;;;;;;;1.75;100.00;100403.38;5037795;28;20044;-61
2023/12/08 07:49:38;;;;;;;27.77;19.17;;;;;;;1.79;100.00;100400.22;5038228;28;20055;-61
2023/12/08 07:52:03;;;;;;;32.70;21.13;;;;;;;1.82;100.00;100405.50;5041742;28;20457;-61
2023/12/08 07:54:32;;;;;;;30.67;20.87;;;;;;;1.83;100.00;100417.50;5041568;28;20037;-60
2023/12/08 07:57:00;;;;;;;33.20;20.37;;;;;;;1.91;100.00;100413.75;5051316;28;20028;-60
2023/12/08 07:59:25;;;;;;;34.47;21.63;;;;;;;1.92;100.00;100404.41;5047371;28;20039;-60
2023/12/08 08:01:51;;;;;;;32.63;21.33;;;;;;;1.99;100.00;100413.31;5045904;28;20025;-61
2023/12/08 08:04:16;;;;;;;31.30;20.63;;;;;;;2.04;100.00;100409.38;5056510;28;20023;-60
2023/12/08 08:06:41;;;;;;;34.67;21.30;;;;;;;2.04;100.00;100417.03;5042360;28;20485;-62
2023/12/08 08:09:07;;;;;;;35.20;22.63;;;;;;;2.06;100.00;100414.56;5054243;28;20029;-60
2023/12/08 08:11:32;;;;;;;38.70;22.97;;;;;;;2.04;100.00;100411.91;5047585;28;20453;-61
2023/12/08 08:13:58;;;;;;;35.63;21.07;;;;;;;2.03;100.00;100416.13;5037321;28;20257;-60
2023/12/08 08:16:23;;;;;;;30.63;20.30;;;;;;;2.07;100.00;100417.22;5040012;28;20075;-60
2023/12/08 08:18:48;;;;;;;36.80;22.20;;;;;;;2.15;100.00;100410.91;5035240;28;20108;-61
2023/12/08 08:21:14;;;;;;;38.97;22.60;;;;;;;2.19;100.00;100418.75;5048580;28;20017;-60
2023/12/08 08:23:41;;;;;;;41.87;24.50;;;;;;;2.18;100.00;100417.00;5049522;28;20060;-60
2023/12/08 08:26:06;;;;;;;43.53;24.80;;;;;;;2.24;100.00;100422.44;5049067;28;20017;-61
2023/12/08 08:28:31;;;;;;;36.40;23.13;;;;;;;2.26;100.00;100423.44;5049814;28;20027;-61
2023/12/08 08:30:57;;;;;;;37.73;23.43;;;;;;;2.24;100.00;100415.66;5050711;28;20594;-60
2023/12/08 08:33:22;;;;;;;43.27;24.40;;;;;;;2.30;100.00;100410.03;5049985;28;20100;-60
2023/12/08 08:35:48;;;;;;;46.07;26.63;;;;;;;2.32;100.00;100413.53;5056964;28;20013;-61
2023/12/08 08:38:13;;;;;;;51.17;26.60;;;;;;;2.35;100.00;100418.88;5049871;28;20025;-60
2023/12/08 08:40:38;;;;;;;45.83;26.17;;;;;;;2.39;100.00;100425.91;5041906;28;20029;-61
2023/12/08 08:43:04;;;;;;;48.27;28.37;;;;;;;2.42;100.00;100434.56;5057314;28;20017;-61
2023/12/08 08:45:29;;;;;;;47.03;26.03;;;;;;;2.48;100.00;100433.22;5041545;28;20028;-61
2023/12/08 08:47:54;;;;;;;50.10;26.90;;;;;;;2.51;100.00;100432.53;5056287;28;20094;-60
2023/12/08 08:50:22;;;;;;;52.07;28.57;;;;;;;2.56;100.00;100438.81;5049848;28;20037;-60
2023/12/08 08:52:47;;;;;;;53.40;29.30;;;;;;;2.61;100.00;100437.38;5056205;28;20060;-61
2023/12/08 08:55:12;;;;;;;56.73;28.23;;;;;;;2.62;100.00;100444.28;5042722;28;20048;-61
2023/12/08 08:57:38;;;;;;;59.93;29.43;;;;;;;2.70;100.00;100441.28;5054849;28;20596;-60
2023/12/08 09:00:04;;;;;;;66.07;30.00;;;;;;;2.70;100.00;100438.75;5048832;28;20039;-60
2023/12/08 09:02:30;;;;;;;60.77;29.23;;;;;;;2.73;100.00;100447.47;5048735;28;20024;-60
2023/12/08 09:04:55;;;;;;;53.20;28.30;;;;;;;2.75;100.00;100447.56;5049076;28;20096;-62
2023/12/08 09:07:20;;;;;;;58.57;29.53;;;;;;;2.81;100.00;100452.13;5048519;28;20064;-60
2023/12/08 09:09:46;;;;;;;65.10;30.63;;;;;;;2.83;100.00;100451.44;5049611;28;20020;-60
2023/12/08 09:12:11;;;;;;;57.43;29.43;;;;;;;2.89;100.00;100453.47;5048658;28;20025;-60
2023/12/08 09:14:38;;;;;;;64.77;30.10;;;;;;;2.98;100.00;100463.34;5048610;28;20135;-60
2023/12/08 09:17:05;;;;;;;55.03;29.93;;;;;;;3.01;100.00;100458.38;5047175;28;20087;-61
2023/12/08 09:19:33;;;;;;;63.10;30.17;;;;;;;3.11;100.00;100460.66;5032663;28;20024;-60
2023/12/08 09:21:59;;;;;;;64.93;30.80;;;;;;;3.17;100.00;100455.00;5045581;28;20041;-60
2023/12/08 09:24:25;;;;;;;63.60;29.43;;;;;;;3.18;100.00;100461.91;5048423;28;20020;-60
2023/12/08 09:26:52;;;;;;;61.27;30.27;;;;;;;3.21;100.00;100458.63;5047986;28;20029;-60
2023/12/08 09:29:18;;;;;;;71.60;31.27;;;;;;;3.23;100.00;100464.72;5046982;28;20111;-60
2023/12/08 09:31:43;;;;;;;62.80;28.93;;;;;;;3.24;100.00;100457.13;5047308;28;20092;-60
2023/12/08 09:34:08;;;;;;;59.07;28.70;;;;;;;3.27;100.00;100465.78;5047044;28;20020;-60
2023/12/08 09:36:33;;;;;;;50.17;26.57;;;;;;;3.29;100.00;100472.72;5048443;28;20025;-60
2023/12/08 09:38:59;;;;;;;64.73;28.60;;;;;;;3.31;100.00;100472.84;5048161;28;20029;-60
2023/12/08 09:41:27;;;;;;;56.97;27.83;;;;;;;3.36;100.00;100482.53;5036473;28;20035;-61
2023/12/08 09:43:59;;;;;;;56.77;26.37;;;;;;;3.40;100.00;100475.03;5054998;28;20248;-61
2023/12/08 09:46:26;;;;;;;50.33;25.10;;;;;;;3.48;100.00;100481.44;5041579;28;20047;-62
2023/12/08 09:48:58;;;;;;;60.33;26.67;;;;;;;3.55;100.00;100468.19;5028544;28;20021;-62
2023/12/08 09:51:24;;;;;;;58.83;24.67;;;;;;;3.57;100.00;100470.81;5042105;28;20075;-60
2023/12/08 09:53:49;;;;;;;54.17;24.20;;;;;;;3.65;100.00;100471.25;5037316;28;20025;-60
2023/12/08 09:56:16;;;;;;;51.20;23.77;;;;;;;3.72;100.00;100475.91;5063150;28;20472;-60
2023/12/08 09:58:43;;;;;;;58.93;27.33;;;;;;;3.73;100.00;100477.66;5050262;28;20056;-62
2023/12/08 10:01:11;;;;;;;48.90;25.77;;;;;;;3.76;100.00;100476.97;5031599;28;20029;-61
2023/12/08 10:03:37;;;;;;;61.00;26.67;;;;;;;3.82;100.00;100473.03;5057894;28;20495;-60
2023/12/08 10:06:02;;;;;;;55.33;25.47;;;;;;;3.88;100.00;100482.75;5034303;28;20017;-61
2023/12/08 10:08:30;;;;;;;62.63;26.50;;;;;;;3.97;100.00;100482.34;5048669;28;20024;-61
2023/12/08 10:10:55;;;;;;;61.37;26.80;;;;;;;4.00;100.00;100481.63;5063559;28;20091;-60
2023/12/08 10:13:21;;;;;;;56.87;25.90;;;;;;;4.02;100.00;100478.34;5057498;28;20060;-60
2023/12/08 10:15:46;;;;;;;58.17;24.93;;;;;;;4.08;100.00;100476.09;5066034;28;20564;-61
2023/12/08 10:18:25;;;;;;;55.27;25.40;;;;;;;4.15;100.00;100476.44;5057473;28;20020;-61
2023/12/08 10:20:52;;;;;;;61.33;24.83;;;;;;;4.17;100.00;100482.53;5047409;28;20032;-61
2023/12/08 10:23:21;;;;;;;55.87;24.93;;;;;;;4.23;100.00;100480.28;5056146;28;20400;-61
2023/12/08 10:25:47;;;;;;;57.77;25.97;;;;;;;4.30;100.00;100476.38;5048830;28;20013;-61
2023/12/08 10:28:13;;;;;;;46.40;22.57;;;;;;;4.36;100.00;100473.22;5047320;28;20555;-61
2023/12/08 10:30:44;;;;;;;58.77;25.53;;;;;;;4.36;100.00;100483.47;5048243;28;20092;-61
2023/12/08 10:33:18;;;;;;;52.08;22.45;;;;;;;4.36;100.00;100481.78;5049010;28;20143;-61
2023/12/08 10:35:44;;;;;;;47.53;22.60;;;;;;;4.40;100.00;100486.28;5044828;28;20024;-61
2023/12/08 10:38:09;;;;;;;61.97;24.77;;;;;;;4.43;100.00;100498.38;5049247;28;20502;-61
2023/12/08 10:40:35;;;;;;;47.00;22.67;;;;;;;4.41;100.00;100494.84;5044298;28;20107;-60
2023/12/08 10:43:01;;;;;;;51.53;24.20;;;;;;;4.46;100.00;100483.16;5043750;28;20036;-60
2023/12/08 10:45:26;;;;;;;59.50;25.23;;;;;;;4.49;100.00;100488.44;5048153;28;20028;-61
2023/12/08 10:47:52;;;;;;;61.23;23.33;;;;;;;4.54;100.00;100492.13;5045224;28;20069;-60
2023/12/08 10:50:19;;;;;;;55.70;23.02;;;;;;;4.59;100.00;100486.34;5051736;28;20028;-61
2023/12/08 10:52:45;;;;;;;55.85;23.15;;;;;;;4.60;100.00;100486.44;5047494;28;20493;-60
2023/12/08 10:55:10;;;;;;;52.10;22.95;;;;;;;4.65;100.00;100489.22;5043459;28;20033;-60
2023/12/08 10:57:36;;;;;;;54.40;22.42;;;;;;;4.71;100.00;100479.28;5046954;28;20025;-60
2023/12/08 11:00:17;;;;;;;48.45;21.83;;;;;;;4.73;100.00;100471.66;5050815;28;20033;-61
2023/12/08 11:02:47;;;;;;;54.70;23.17;;;;;;;4.75;100.00;100477.75;5044573;28;20032;-61